Time,TemperatureF,DewpointF,PressureIn,WindDirection,WindDirectionDegrees,WindSpeedMPH,WindSpeedGustMPH,Humidity,HourlyPrecipIn,Conditions,Clouds,dailyrainin,SoftwareType,DateUTC
2013-05-13 00:03:00,52.0,21.0,29.98,West,279,7.0,-999.0,29,-99.99,,,-99.99,,2013-05-13 04:03:00,
2013-05-13 00:12:00,52.0,21.0,29.98,West,279,7.0,-999.0,29,-99.99,,,-99.99,,2013-05-13 04:12:00,
2013-05-13 00:23:00,52.0,21.0,29.98,West,279,7.0,-999.0,29,-99.99,,,-99.99,,2013-05-13 04:23:00,
2013-05-13 00:33:00,52.0,22.0,29.99,West,265,6.0,-999.0,30,-99.99,,,-99.99,,2013-05-13 04:33:00,
2013-05-13 00:42:00,52.0,22.0,29.99,West,265,6.0,-999.0,30,-99.99,,,-99.99,,2013-05-13 04:42:00,
2013-05-13 00:53:00,52.0,23.0,30.00,West,268,5.0,-999.0,32,-99.99,,,-99.99,,2013-05-13 04:53:00,
2013-05-13 01:02:00,52.0,24.0,30.00,West,265,2.0,-999.0,33,-99.99,,,-99.99,,2013-05-13 05:02:00,
2013-05-13 01:12:00,51.0,23.0,30.00,West,266,1.0,-999.0,33,-99.99,,,-99.99,,2013-05-13 05:12:00,
2013-05-13 01:22:00,51.0,23.0,30.00,West,266,1.0,-999.0,33,-99.99,,,-99.99,,2013-05-13 05:22:00,
2013-05-13 01:32:00,51.0,24.0,30.01,West,262,3.0,-999.0,34,-99.99,,,-99.99,,2013-05-13 05:32:00,
2013-05-13 01:42:00,51.0,24.0,30.01,West,262,3.0,-999.0,34,-99.99,,,-99.99,,2013-05-13 05:42:00,
2013-05-13 01:52:00,51.0,24.0,30.01,West,262,4.0,-999.0,35,-99.99,,,-99.99,,2013-05-13 05:52:00,
2013-05-13 02:01:00,50.0,24.0,30.01,West,262,3.0,-999.0,36,-99.99,,,-99.99,,2013-05-13 06:01:00,
2013-05-13 02:11:00,50.0,24.0,30.01,West,262,3.0,-999.0,36,-99.99,,,-99.99,,2013-05-13 06:11:00,
2013-05-13 02:21:00,50.0,25.0,30.01,WSW,247,3.0,-999.0,37,-99.99,,,-99.99,,2013-05-13 06:21:00,
2013-05-13 02:32:00,50.0,25.0,30.00,West,265,3.0,-999.0,37,-99.99,,,-99.99,,2013-05-13 06:32:00,
2013-05-13 02:42:00,49.0,25.0,30.01,West,264,6.0,-999.0,38,-99.99,,,-99.99,,2013-05-13 06:42:00,
2013-05-13 02:52:00,49.0,25.0,30.01,West,264,6.0,-999.0,38,-99.99,,,-99.99,,2013-05-13 06:52:00,
2013-05-13 03:01:00,49.0,25.0,30.01,WSW,250,3.0,-999.0,39,-99.99,,,-99.99,,2013-05-13 07:01:00,
2013-05-13 03:11:00,49.0,25.0,30.01,WSW,250,3.0,-999.0,39,-99.99,,,-99.99,,2013-05-13 07:11:00,
2013-05-13 03:22:00,49.0,25.0,30.01,WSW,250,3.0,-999.0,39,-99.99,,,-99.99,,2013-05-13 07:22:00,
2013-05-13 03:32:00,48.0,25.0,30.01,WSW,250,3.0,-999.0,41,-99.99,,,-99.99,,2013-05-13 07:32:00,
2013-05-13 03:42:00,49.0,26.0,30.01,WSW,249,3.0,-999.0,41,-99.99,,,-99.99,,2013-05-13 07:42:00,
2013-05-13 03:52:00,49.0,26.0,30.01,WSW,249,3.0,-999.0,41,-99.99,,,-99.99,,2013-05-13 07:52:00,
2013-05-13 04:02:00,48.0,26.0,30.01,WSW,248,2.0,-999.0,42,-99.99,,,-99.99,,2013-05-13 08:02:00,
2013-05-13 04:11:00,48.0,26.0,30.01,WSW,248,2.0,-999.0,42,-99.99,,,-99.99,,2013-05-13 08:11:00,
2013-05-13 04:21:00,48.0,27.0,30.02,WSW,248,2.0,-999.0,43,-99.99,,,-99.99,,2013-05-13 08:21:00,
2013-05-13 04:32:00,47.0,27.0,30.02,WSW,248,4.0,-999.0,45,-99.99,,,-99.99,,2013-05-13 08:32:00,
2013-05-13 04:42:00,47.0,27.0,30.02,WSW,248,4.0,-999.0,45,-99.99,,,-99.99,,2013-05-13 08:42:00,
2013-05-13 04:52:00,47.0,27.0,30.02,WSW,247,3.0,-999.0,46,-99.99,,,-99.99,,2013-05-13 08:52:00,
2013-05-13 05:01:00,47.0,27.0,30.02,WSW,249,3.0,-999.0,46,-99.99,,,-99.99,,2013-05-13 09:01:00,
2013-05-13 05:11:00,47.0,27.0,30.02,WSW,249,3.0,-999.0,46,-99.99,,,-99.99,,2013-05-13 09:11:00,
2013-05-13 05:21:00,47.0,27.0,30.03,WSW,250,5.0,-999.0,46,-99.99,,,-99.99,,2013-05-13 09:21:00,
2013-05-13 05:33:00,47.0,28.0,30.03,WSW,239,5.0,-999.0,48,-99.99,,,-99.99,,2013-05-13 09:33:00,
2013-05-13 05:42:00,47.0,28.0,30.03,WSW,239,5.0,-999.0,48,-99.99,,,-99.99,,2013-05-13 09:42:00,
2013-05-13 05:52:00,46.0,27.0,30.04,WSW,241,2.0,-999.0,47,-99.99,,,-99.99,,2013-05-13 09:52:00,
2013-05-13 06:03:00,47.0,28.0,30.04,WSW,240,6.0,-999.0,48,-99.99,,,-99.99,,2013-05-13 10:03:00,
2013-05-13 06:12:00,47.0,28.0,30.04,WSW,240,6.0,-999.0,48,-99.99,,,-99.99,,2013-05-13 10:12:00,
2013-05-13 06:22:00,47.0,28.0,30.05,WSW,244,2.0,-999.0,47,-99.99,,,-99.99,,2013-05-13 10:22:00,
2013-05-13 06:33:00,47.0,28.0,30.06,WSW,242,1.0,-999.0,48,-99.99,,,-99.99,,2013-05-13 10:33:00,
2013-05-13 06:42:00,47.0,28.0,30.06,WSW,242,1.0,-999.0,48,-99.99,,,-99.99,,2013-05-13 10:42:00,
2013-05-13 06:52:00,47.0,28.0,30.06,WSW,241,2.0,-999.0,48,-99.99,,,-99.99,,2013-05-13 10:52:00,
2013-05-13 07:02:00,47.0,29.0,30.06,WSW,237,5.0,-999.0,49,-99.99,,,-99.99,,2013-05-13 11:02:00,
2013-05-13 07:12:00,47.0,29.0,30.06,WSW,237,5.0,-999.0,49,-99.99,,,-99.99,,2013-05-13 11:12:00,
2013-05-13 07:22:00,47.0,28.0,30.05,WSW,242,3.0,-999.0,47,-99.99,,,-99.99,,2013-05-13 11:22:00,
2013-05-13 07:32:00,48.0,28.0,30.07,SW,226,3.0,-999.0,46,-99.99,,,-99.99,,2013-05-13 11:32:00,
2013-05-13 07:42:00,48.0,28.0,30.07,SW,226,3.0,-999.0,46,-99.99,,,-99.99,,2013-05-13 11:42:00,
2013-05-13 07:52:00,49.0,29.0,30.07,SW,234,6.0,-999.0,45,-99.99,,,-99.99,,2013-05-13 11:52:00,
2013-05-13 08:02:00,49.0,26.0,30.07,SW,218,8.0,-999.0,41,-99.99,,,-99.99,,2013-05-13 12:02:00,
2013-05-13 08:11:00,49.0,26.0,30.07,SW,218,8.0,-999.0,41,-99.99,,,-99.99,,2013-05-13 12:11:00,
2013-05-13 08:21:00,49.0,26.0,30.08,West,272,4.0,-999.0,41,-99.99,,,-99.99,,2013-05-13 12:21:00,
2013-05-13 08:32:00,50.0,27.0,30.08,SW,234,3.0,-999.0,41,-99.99,,,-99.99,,2013-05-13 12:32:00,
2013-05-13 08:42:00,50.0,27.0,30.08,SW,234,3.0,-999.0,41,-99.99,,,-99.99,,2013-05-13 12:42:00,
2013-05-13 08:51:00,50.0,26.0,30.08,West,263,7.0,-999.0,39,-99.99,,,-99.99,,2013-05-13 12:51:00,
2013-05-13 09:01:00,50.0,24.0,30.09,WNW,282,4.0,-999.0,36,-99.99,,,-99.99,,2013-05-13 13:01:00,
2013-05-13 09:11:00,50.0,24.0,30.09,WNW,282,4.0,-999.0,36,-99.99,,,-99.99,,2013-05-13 13:11:00,
2013-05-13 09:21:00,50.0,24.0,30.09,SW,227,9.0,-999.0,36,-99.99,,,-99.99,,2013-05-13 13:21:00,
2013-05-13 09:32:00,50.0,25.0,30.09,WNW,284,2.0,-999.0,38,-99.99,,,-99.99,,2013-05-13 13:32:00,
2013-05-13 09:42:00,50.0,24.0,30.09,WNW,290,8.0,-999.0,36,-99.99,,,-99.99,,2013-05-13 13:42:00,
2013-05-13 09:52:00,50.0,24.0,30.09,WNW,290,8.0,-999.0,36,-99.99,,,-99.99,,2013-05-13 13:52:00,
2013-05-13 10:02:00,50.0,22.0,30.09,West,266,13.0,-999.0,33,-99.99,,,-99.99,,2013-05-13 14:02:00,
2013-05-13 10:11:00,50.0,22.0,30.09,West,266,13.0,-999.0,33,-99.99,,,-99.99,,2013-05-13 14:11:00,
2013-05-13 10:22:00,51.0,21.0,30.09,West,270,12.0,-999.0,30,-99.99,,,-99.99,,2013-05-13 14:22:00,
2013-05-13 10:32:00,51.0,23.0,30.09,WNW,284,10.0,-999.0,33,-99.99,,,-99.99,,2013-05-13 14:32:00,
2013-05-13 10:41:00,51.0,23.0,30.09,WNW,284,10.0,-999.0,33,-99.99,,,-99.99,,2013-05-13 14:41:00,
2013-05-13 10:51:00,51.0,23.0,30.09,WSW,250,4.0,-999.0,33,-99.99,,,-99.99,,2013-05-13 14:51:00,
2013-05-13 11:01:00,51.0,21.0,30.08,WNW,285,12.0,-999.0,31,-99.99,,,-99.99,,2013-05-13 15:01:00,
2013-05-13 11:11:00,51.0,21.0,30.08,WNW,285,12.0,-999.0,31,-99.99,,,-99.99,,2013-05-13 15:11:00,
2013-05-13 11:21:00,52.0,23.0,30.09,WSW,257,8.0,-999.0,32,-99.99,,,-99.99,,2013-05-13 15:21:00,
2013-05-13 11:32:00,52.0,22.0,30.09,West,276,11.0,-999.0,31,-99.99,,,-99.99,,2013-05-13 15:32:00,
2013-05-13 11:42:00,52.0,22.0,30.09,West,276,11.0,-999.0,31,-99.99,,,-99.99,,2013-05-13 15:42:00,
2013-05-13 11:53:00,51.0,22.0,30.09,WNW,285,6.0,-999.0,32,-99.99,,,-99.99,,2013-05-13 15:53:00,
2013-05-13 12:03:00,53.0,22.0,30.09,West,272,9.0,-999.0,30,-99.99,,,-99.99,,2013-05-13 16:03:00,
2013-05-13 12:12:00,53.0,22.0,30.09,West,272,9.0,-999.0,30,-99.99,,,-99.99,,2013-05-13 16:12:00,
2013-05-13 12:21:00,53.0,21.0,30.09,West,260,11.0,-999.0,28,-99.99,,,-99.99,,2013-05-13 16:21:00,
2013-05-13 12:33:00,52.0,19.0,30.09,WNW,288,10.0,-999.0,27,-99.99,,,-99.99,,2013-05-13 16:33:00,
2013-05-13 12:42:00,54.0,21.0,30.08,SSW,213,10.0,-999.0,27,-99.99,,,-99.99,,2013-05-13 16:42:00,
2013-05-13 12:52:00,54.0,21.0,30.08,SSW,213,10.0,-999.0,27,-99.99,,,-99.99,,2013-05-13 16:52:00,
2013-05-13 13:02:00,53.0,20.0,30.09,West,266,12.0,-999.0,27,-99.99,,,-99.99,,2013-05-13 17:02:00,
2013-05-13 13:12:00,53.0,20.0,30.09,West,266,12.0,-999.0,27,-99.99,,,-99.99,,2013-05-13 17:12:00,
2013-05-13 13:21:00,53.0,20.0,30.09,WNW,283,8.0,-999.0,27,-99.99,,,-99.99,,2013-05-13 17:21:00,
2013-05-13 13:32:00,54.0,21.0,30.08,WSW,245,8.0,-999.0,27,-99.99,,,-99.99,,2013-05-13 17:32:00,
2013-05-13 13:42:00,54.0,20.0,30.08,SW,234,9.0,-999.0,26,-99.99,,,-99.99,,2013-05-13 17:42:00,
2013-05-13 13:54:00,54.0,20.0,30.08,SW,234,9.0,-999.0,26,-99.99,,,-99.99,,2013-05-13 17:54:00,
2013-05-13 14:03:00,54.0,21.0,30.08,SW,223,6.0,-999.0,27,-99.99,,,-99.99,,2013-05-13 18:03:00,
2013-05-13 14:13:00,54.0,21.0,30.08,SW,223,6.0,-999.0,27,-99.99,,,-99.99,,2013-05-13 18:13:00,
2013-05-13 14:23:00,54.0,21.0,30.07,WSW,254,9.0,-999.0,27,-99.99,,,-99.99,,2013-05-13 18:23:00,
2013-05-13 14:32:00,54.0,21.0,30.07,WSW,247,9.0,-999.0,27,-99.99,,,-99.99,,2013-05-13 18:32:00,
2013-05-13 14:42:00,54.0,19.0,30.07,NW,305,6.0,-999.0,25,-99.99,,,-99.99,,2013-05-13 18:42:00,
2013-05-13 14:51:00,54.0,19.0,30.07,NW,305,6.0,-999.0,25,-99.99,,,-99.99,,2013-05-13 18:51:00,
2013-05-13 15:01:00,55.0,19.0,30.07,WNW,298,10.0,-999.0,24,-99.99,,,-99.99,,2013-05-13 19:01:00,
2013-05-13 15:11:00,55.0,19.0,30.07,WNW,298,10.0,-999.0,24,-99.99,,,-99.99,,2013-05-13 19:11:00,
2013-05-13 15:21:00,55.0,19.0,30.07,West,268,9.0,-999.0,24,-99.99,,,-99.99,,2013-05-13 19:21:00,
2013-05-13 15:32:00,54.0,20.0,30.07,West,276,9.0,-999.0,26,-99.99,,,-99.99,,2013-05-13 19:32:00,
2013-05-13 15:44:00,54.0,20.0,30.06,West,272,10.0,-999.0,26,-99.99,,,-99.99,,2013-05-13 19:44:00,
2013-05-13 15:53:00,54.0,20.0,30.06,West,272,10.0,-999.0,26,-99.99,,,-99.99,,2013-05-13 19:53:00,
2013-05-13 16:02:00,54.0,21.0,30.06,NW,305,18.0,-999.0,27,-99.99,,,-99.99,,2013-05-13 20:02:00,
2013-05-13 16:11:00,54.0,21.0,30.06,NW,305,18.0,-999.0,27,-99.99,,,-99.99,,2013-05-13 20:11:00,
2013-05-13 16:23:00,54.0,21.0,30.06,WNW,293,6.0,-999.0,27,-99.99,,,-99.99,,2013-05-13 20:23:00,
2013-05-13 16:34:00,53.0,20.0,30.06,WNW,282,6.0,-999.0,27,-99.99,,,-99.99,,2013-05-13 20:34:00,
2013-05-13 16:44:00,53.0,20.0,30.06,WNW,282,6.0,-999.0,27,-99.99,,,-99.99,,2013-05-13 20:44:00,
2013-05-13 16:53:00,53.0,20.0,30.06,NW,317,9.0,-999.0,27,-99.99,,,-99.99,,2013-05-13 20:53:00,
2013-05-13 17:03:00,53.0,20.0,30.06,WNW,289,7.0,-999.0,27,-99.99,,,-99.99,,2013-05-13 21:03:00,
2013-05-13 17:14:00,53.0,20.0,30.06,WNW,289,7.0,-999.0,27,-99.99,,,-99.99,,2013-05-13 21:14:00,
2013-05-13 17:23:00,53.0,20.0,30.06,WNW,301,2.0,-999.0,27,-99.99,,,-99.99,,2013-05-13 21:23:00,
2013-05-13 17:33:00,54.0,18.0,30.05,NW,304,8.0,-999.0,24,-99.99,,,-99.99,,2013-05-13 21:33:00,
2013-05-13 17:43:00,54.0,18.0,30.05,NW,304,8.0,-999.0,24,-99.99,,,-99.99,,2013-05-13 21:43:00,
2013-05-13 17:53:00,54.0,18.0,30.05,WNW,293,3.0,-999.0,24,-99.99,,,-99.99,,2013-05-13 21:53:00,
2013-05-13 18:03:00,54.0,18.0,30.05,WNW,291,4.0,-999.0,24,-99.99,,,-99.99,,2013-05-13 22:03:00,
2013-05-13 18:12:00,54.0,18.0,30.05,WNW,291,4.0,-999.0,24,-99.99,,,-99.99,,2013-05-13 22:12:00,
2013-05-13 18:23:00,54.0,18.0,30.05,NW,326,2.0,-999.0,24,-99.99,,,-99.99,,2013-05-13 22:23:00,
2013-05-13 18:32:00,55.0,19.0,30.05,West,265,6.0,-999.0,24,-99.99,,,-99.99,,2013-05-13 22:32:00,
2013-05-13 18:43:00,54.0,18.0,30.05,WNW,298,10.0,-999.0,24,-99.99,,,-99.99,,2013-05-13 22:43:00,
2013-05-13 18:52:00,54.0,18.0,30.05,WNW,298,10.0,-999.0,24,-99.99,,,-99.99,,2013-05-13 22:52:00,
2013-05-13 19:02:00,54.0,18.0,30.05,NW,311,14.0,-999.0,24,-99.99,,,-99.99,,2013-05-13 23:02:00,
2013-05-13 19:12:00,54.0,18.0,30.05,NW,311,14.0,-999.0,24,-99.99,,,-99.99,,2013-05-13 23:12:00,
2013-05-13 19:23:00,54.0,19.0,30.06,West,274,11.0,-999.0,25,-99.99,,,-99.99,,2013-05-13 23:23:00,
2013-05-13 19:34:00,53.0,20.0,30.06,NW,308,8.0,-999.0,27,-99.99,,,-99.99,,2013-05-13 23:34:00,
2013-05-13 19:42:00,53.0,20.0,30.06,NW,308,8.0,-999.0,27,-99.99,,,-99.99,,2013-05-13 23:42:00,
2013-05-13 19:53:00,53.0,22.0,30.07,NW,326,7.0,-999.0,29,-99.99,,,-99.99,,2013-05-13 23:53:00,
2013-05-13 20:02:00,52.0,22.0,30.08,WNW,302,8.0,-999.0,31,-99.99,,,-99.99,,2013-05-14 00:02:00,
2013-05-13 20:13:00,52.0,23.0,30.09,NNW,328,8.0,-999.0,32,-99.99,,,-99.99,,2013-05-14 00:13:00,
2013-05-13 20:22:00,52.0,23.0,30.09,NNW,328,8.0,-999.0,32,-99.99,,,-99.99,,2013-05-14 00:22:00,
2013-05-13 20:32:00,51.0,23.0,30.09,NW,324,6.0,-999.0,33,-99.99,,,-99.99,,2013-05-14 00:32:00,
2013-05-13 20:42:00,51.0,23.0,30.09,NW,324,6.0,-999.0,33,-99.99,,,-99.99,,2013-05-14 00:42:00,
2013-05-13 20:51:00,51.0,23.0,30.10,WNW,290,2.0,-999.0,33,-99.99,,,-99.99,,2013-05-14 00:51:00,
2013-05-13 21:02:00,50.0,23.0,30.11,North,350,7.0,-999.0,34,-99.99,,,-99.99,,2013-05-14 01:02:00,
2013-05-13 21:11:00,50.0,23.0,30.11,North,350,7.0,-999.0,34,-99.99,,,-99.99,,2013-05-14 01:11:00,
2013-05-13 21:21:00,50.0,23.0,30.11,NNW,329,1.0,-999.0,34,-99.99,,,-99.99,,2013-05-14 01:21:00,
2013-05-13 21:32:00,49.0,24.0,30.12,NNW,330,5.0,-999.0,37,-99.99,,,-99.99,,2013-05-14 01:32:00,
2013-05-13 21:43:00,49.0,24.0,30.12,NNW,330,5.0,-999.0,37,-99.99,,,-99.99,,2013-05-14 01:43:00,
2013-05-13 21:53:00,49.0,25.0,30.13,NNW,331,6.0,-999.0,38,-99.99,,,-99.99,,2013-05-14 01:53:00,
2013-05-13 22:02:00,49.0,25.0,30.14,NW,325,2.0,-999.0,39,-99.99,,,-99.99,,2013-05-14 02:02:00,
2013-05-13 22:12:00,48.0,25.0,30.14,NNW,337,3.0,-999.0,40,-99.99,,,-99.99,,2013-05-14 02:12:00,
2013-05-13 22:22:00,48.0,25.0,30.14,NNW,337,3.0,-999.0,40,-99.99,,,-99.99,,2013-05-14 02:22:00,
2013-05-13 22:32:00,48.0,26.0,30.15,NW,311,2.0,-999.0,42,-99.99,,,-99.99,,2013-05-14 02:32:00,
2013-05-13 22:42:00,48.0,26.0,30.15,NW,311,2.0,-999.0,42,-99.99,,,-99.99,,2013-05-14 02:42:00,
2013-05-13 22:52:00,48.0,27.0,30.15,NW,320,5.0,-999.0,43,-99.99,,,-99.99,,2013-05-14 02:52:00,
2013-05-13 23:01:00,47.0,27.0,30.15,WNW,294,4.0,-999.0,46,-99.99,,,-99.99,,2013-05-14 03:01:00,
2013-05-13 23:11:00,47.0,27.0,30.15,WNW,294,4.0,-999.0,46,-99.99,,,-99.99,,2013-05-14 03:11:00,
2013-05-13 23:21:00,47.0,28.0,30.15,NW,306,3.0,-999.0,47,-99.99,,,-99.99,,2013-05-14 03:21:00,
2013-05-13 23:33:00,46.0,28.0,30.15,NW,321,6.0,-999.0,50,-99.99,,,-99.99,,2013-05-14 03:33:00,
2013-05-13 23:42:00,46.0,28.0,30.15,NW,321,6.0,-999.0,50,-99.99,,,-99.99,,2013-05-14 03:42:00,
2013-05-13 23:52:00,46.0,28.0,30.15,NW,313,1.0,-999.0,50,-99.99,,,-99.99,,2013-05-14 03:52:00,